Time;durP1;ratioP1;P1;durP2;ratioP2;P2;SDS_P1;SDS_P2;PMS_P1;PMS_P2;Temp;Humidity;BMP_temperature;BMP_pressure;BME280_temperature;BME280_humidity;BME280_pressure;Samples;Min_cycle;Max_cycle;Signal;HPM_P1;HPM_P2
2023/10/07 00:06:27;;;;;;;18.27;8.40;;;13.50;93.00;;;;;;20842152;28;20672;-65
2023/10/07 00:16:30;;;;;;;13.50;7.63;;;13.30;93.30;;;;;;20841285;28;20293;-65
2023/10/07 00:26:31;;;;;;;13.20;7.83;;;13.30;93.50;;;;;;20856174;28;20206;-65
2023/10/07 00:46:35;;;;;;;14.23;8.00;;;13.20;94.00;;;;;;20863414;28;20211;-66
2023/10/07 00:56:42;;;;;;;17.37;8.13;;;13.20;94.30;;;;;;20838170;28;20246;-65
2023/10/07 01:06:45;;;;;;;14.50;8.20;;;13.10;94.40;;;;;;20837907;28;20690;-66
2023/10/07 01:16:47;;;;;;;16.33;7.90;;;13.10;94.70;;;;;;20836557;28;20663;-65
2023/10/07 01:26:50;;;;;;;14.93;7.73;;;13.10;94.90;;;;;;20835671;28;20201;-64
2023/10/07 01:36:52;;;;;;;13.53;7.20;;;13.10;95.10;;;;;;20837994;28;20662;-65
2023/10/07 01:46:56;;;;;;;13.50;7.30;;;13.00;95.30;;;;;;20880016;28;20696;-65
2023/10/07 01:56:59;;;;;;;17.30;7.40;;;13.00;95.40;;;;;;20832856;28;20237;-64
2023/10/07 02:07:02;;;;;;;19.87;7.67;;;13.10;95.60;;;;;;20832918;28;20245;-64
2023/10/07 02:17:07;;;;;;;24.23;11.07;;;13.00;95.70;;;;;;20831951;28;20247;-65
2023/10/07 02:27:38;;;;;;;19.60;9.70;;;13.00;95.90;;;;;;20831293;28;20208;-65
2023/10/07 02:37:38;;;;;;;18.17;8.93;;;13.00;95.90;;;;;;20831029;28;20241;-64
2023/10/07 02:47:40;;;;;;;22.87;11.00;;;12.90;96.10;;;;;;20830033;28;20251;-65
2023/10/07 02:57:46;;;;;;;44.13;19.43;;;12.80;96.10;;;;;;20829346;28;20601;-65
2023/10/07 03:08:01;;;;;;;21.83;11.23;;;12.70;96.20;;;;;;20832710;28;20297;-65
2023/10/07 03:18:04;;;;;;;15.03;7.57;;;12.70;96.50;;;;;;20845865;28;20236;-65
2023/10/07 03:28:16;;;;;;;18.50;7.73;;;12.70;96.60;;;;;;20844947;28;20626;-65
2023/10/07 03:38:18;;;;;;;15.87;7.43;;;12.50;96.30;;;;;;20844162;28;20706;-65
2023/10/07 03:48:23;;;;;;;14.60;7.33;;;12.50;96.70;;;;;;20843917;28;20210;-65
2023/10/07 03:58:27;;;;;;;15.07;8.33;;;12.50;96.80;;;;;;20842714;28;20240;-65
2023/10/07 04:08:29;;;;;;;16.03;7.63;;;12.30;96.90;;;;;;20841725;28;20246;-64
2023/10/07 04:18:37;;;;;;;15.43;7.67;;;12.30;97.00;;;;;;20840424;28;20319;-65
2023/10/07 04:28:39;;;;;;;14.90;8.20;;;12.30;97.00;;;;;;20840284;28;20211;-65
2023/10/07 04:38:53;;;;;;;13.30;7.50;;;12.30;97.10;;;;;;20839521;28;20715;-65
2023/10/07 04:48:57;;;;;;;16.13;7.93;;;12.30;97.20;;;;;;20839206;28;20205;-64
2023/10/07 04:59:10;;;;;;;15.77;7.97;;;12.40;97.30;;;;;;20838152;28;20703;-66
2023/10/07 05:09:18;;;;;;;13.57;7.30;;;12.50;97.40;;;;;;20837490;28;20211;-66
2023/10/07 05:19:21;;;;;;;15.07;7.10;;;12.60;97.40;;;;;;20836536;28;20265;-65
2023/10/07 05:29:24;;;;;;;20.23;8.07;;;12.70;97.40;;;;;;20834988;28;20282;-66
2023/10/07 05:39:26;;;;;;;17.37;7.37;;;12.80;97.60;;;;;;20833629;28;20775;-61
2023/10/07 05:49:27;;;;;;;16.77;7.70;;;12.80;97.50;;;;;;20834124;28;20236;-61
2023/10/07 05:59:33;;;;;;;13.20;7.27;;;12.80;97.50;;;;;;20833104;28;20239;-62
2023/10/07 06:09:41;;;;;;;29.20;10.10;;;12.90;97.60;;;;;;20832315;28;20603;-62
2023/10/07 06:19:43;;;;;;;14.77;7.80;;;13.00;97.70;;;;;;20832060;28;20705;-66
2023/10/07 06:29:45;;;;;;;17.43;7.87;;;13.10;97.80;;;;;;20831037;28;20214;-66
2023/10/07 06:39:48;;;;;;;14.77;6.83;;;13.30;97.80;;;;;;20830129;28;20588;-66
2023/10/07 06:49:52;;;;;;;18.17;9.20;;;13.40;97.70;;;;;;20833512;28;20254;-68
2023/10/07 06:59:55;;;;;;;18.20;7.37;;;13.60;97.60;;;;;;20866716;28;20242;-66
2023/10/07 07:09:59;;;;;;;17.63;7.60;;;13.70;98.00;;;;;;20909524;28;20289;-68
2023/10/07 07:30:19;;;;;;;16.07;7.73;;;13.80;97.90;;;;;;20909413;28;20199;-67
2023/10/07 07:40:38;;;;;;;17.07;7.57;;;14.00;97.90;;;;;;20908689;28;20262;-65
2023/10/07 07:50:41;;;;;;;18.43;7.97;;;14.20;97.90;;;;;;20907589;28;20236;-66
2023/10/07 08:00:45;;;;;;;19.10;8.60;;;14.40;97.80;;;;;;20918385;28;20232;-62
2023/10/07 08:10:47;;;;;;;14.23;8.10;;;14.60;97.80;;;;;;20921507;28;20211;-62
2023/10/07 08:20:56;;;;;;;14.53;7.67;;;14.80;97.60;;;;;;20920297;28;20235;-63
2023/10/07 08:31:13;;;;;;;12.50;7.20;;;15.00;97.40;;;;;;20920704;28;20226;-63
2023/10/07 08:41:18;;;;;;;15.77;7.63;;;15.10;97.20;;;;;;20919167;28;20764;-63
2023/10/07 08:51:25;;;;;;;13.13;6.60;;;15.30;97.10;;;;;;20917140;28;20298;-63
2023/10/07 09:01:27;;;;;;;16.60;8.03;;;15.40;97.00;;;;;;20917737;28;20287;-63
2023/10/07 09:11:30;;;;;;;15.77;6.17;;;15.60;97.00;;;;;;20916394;28;20223;-62
2023/10/07 09:21:33;;;;;;;13.33;6.20;;;15.80;96.90;;;;;;20916028;28;20574;-63
2023/10/07 09:31:39;;;;;;;15.43;6.27;;;16.10;96.70;;;;;;20915141;28;20204;-62
2023/10/07 09:41:44;;;;;;;10.73;5.10;;;16.40;96.50;;;;;;20914714;28;20642;-63
2023/10/07 09:51:50;;;;;;;9.57;4.97;;;16.60;96.30;;;;;;20914614;28;20235;-63
2023/10/07 10:02:16;;;;;;;10.00;4.53;;;16.70;96.10;;;;;;20913916;28;20205;-64
2023/10/07 10:12:19;;;;;;;10.73;4.53;;;16.90;95.90;;;;;;20911964;28;20326;-64
2023/10/07 10:22:24;;;;;;;10.53;5.10;;;17.10;95.40;;;;;;20910355;28;20683;-62
2023/10/07 10:32:30;;;;;;;10.10;4.27;;;17.30;95.10;;;;;;20909686;28;20589;-66
2023/10/07 10:42:43;;;;;;;10.67;4.53;;;17.40;94.60;;;;;;20907661;28;20232;-62
2023/10/07 10:52:48;;;;;;;16.40;4.47;;;17.50;94.30;;;;;;20907471;28;20254;-64
2023/10/07 11:02:52;;;;;;;9.43;3.90;;;17.70;94.10;;;;;;20908718;28;20567;-62
2023/10/07 11:12:56;;;;;;;8.13;4.63;;;17.90;93.80;;;;;;20906707;28;20651;-62
2023/10/07 11:22:59;;;;;;;9.47;4.30;;;18.00;93.40;;;;;;20906616;28;20243;-62
2023/10/07 11:33:09;;;;;;;5.97;4.13;;;18.10;93.20;;;;;;20918228;28;20250;-64
2023/10/07 11:43:12;;;;;;;9.17;4.50;;;18.20;93.00;;;;;;20923823;28;20214;-62
2023/10/07 11:53:13;;;;;;;8.60;4.17;;;18.30;92.80;;;;;;20922906;28;20270;-62
2023/10/07 12:03:17;;;;;;;9.10;4.43;;;18.40;92.60;;;;;;20891988;28;20218;-69
2023/10/07 12:13:19;;;;;;;5.90;3.33;;;18.50;92.60;;;;;;20839110;28;20244;-68
2023/10/07 12:23:23;;;;;;;8.53;5.67;;;18.50;92.50;;;;;;20837488;28;20237;-69
2023/10/07 12:33:26;;;;;;;6.80;4.10;;;18.50;92.60;;;;;;20853310;28;20673;-68
2023/10/07 12:43:37;;;;;;;7.37;4.07;;;19.00;92.50;;;;;;20834937;28;20227;-63
2023/10/07 12:53:40;;;;;;;9.67;4.27;;;19.00;92.00;;;;;;20899173;28;20243;-67
2023/10/07 13:03:45;;;;;;;8.03;4.00;;;19.10;91.70;;;;;;20917833;28;20196;-68
2023/10/07 13:13:47;;;;;;;6.87;4.07;;;19.20;91.50;;;;;;20916908;28;20326;-75
2023/10/07 13:23:49;;;;;;;6.83;4.07;;;19.30;91.40;;;;;;20916870;28;20668;-71
2023/10/07 13:33:52;;;;;;;7.37;4.13;;;19.40;91.00;;;;;;20914876;28;20227;-69
2023/10/07 13:43:53;;;;;;;9.97;4.93;;;19.70;90.00;;;;;;20915657;28;20211;-73
2023/10/07 14:04:18;;;;;;;6.73;4.00;;;20.20;86.70;;;;;;20877341;28;20204;-64
2023/10/07 14:14:21;;;;;;;6.77;3.67;;;20.60;84.70;;;;;;20871136;28;20327;-67
2023/10/07 14:24:28;;;;;;;7.93;3.70;;;21.60;81.30;;;;;;20911375;28;20204;-68
2023/10/07 14:34:29;;;;;;;6.70;3.90;;;22.60;76.20;;;;;;20897163;28;20236;-73
2023/10/07 14:44:32;;;;;;;10.13;4.90;;;21.60;77.10;;;;;;20907272;28;20207;-68
2023/10/07 14:54:34;;;;;;;7.93;4.17;;;21.30;78.50;;;;;;20910055;28;20609;-64
2023/10/07 15:04:36;;;;;;;6.73;4.00;;;21.00;79.10;;;;;;20908615;28;20204;-68
2023/10/07 15:14:37;;;;;;;9.00;3.97;;;21.00;79.60;;;;;;20911269;28;20592;-68
2023/10/07 15:24:42;;;;;;;13.60;5.00;;;20.90;79.30;;;;;;20910850;28;20573;-68
2023/10/07 15:34:44;;;;;;;7.00;3.90;;;20.60;79.80;;;;;;20910965;28;20253;-68
2023/10/07 15:44:48;;;;;;;7.77;4.00;;;20.40;80.20;;;;;;20910906;28;20207;-68
2023/10/07 15:54:54;;;;;;;7.03;3.87;;;20.10;81.30;;;;;;20907983;28;20249;-68
2023/10/07 16:04:56;;;;;;;8.37;3.90;;;19.90;81.20;;;;;;20910037;28;20685;-68
2023/10/07 16:15:00;;;;;;;6.40;3.60;;;19.70;81.80;;;;;;20910737;28;20227;-68
2023/10/07 16:25:05;;;;;;;12.63;4.60;;;19.60;82.70;;;;;;20954866;28;20654;-71
2023/10/07 16:35:09;;;;;;;9.27;3.87;;;19.40;83.20;;;;;;21004287;28;20674;-71
2023/10/07 16:45:12;;;;;;;6.60;3.77;;;19.30;84.00;;;;;;21003501;28;20677;-72
2023/10/07 16:55:15;;;;;;;10.27;3.83;;;19.20;84.80;;;;;;20919330;28;20243;-81
2023/10/07 17:05:17;;;;;;;10.00;4.00;;;19.10;85.40;;;;;;20920601;28;20663;-72
2023/10/07 17:15:20;;;;;;;9.27;4.50;;;19.00;85.90;;;;;;20917800;28;20231;-70
2023/10/07 17:25:21;;;;;;;7.97;4.10;;;18.80;86.40;;;;;;20896598;28;20253;-72
2023/10/07 17:35:23;;;;;;;10.20;4.10;;;18.80;87.10;;;;;;20914122;28;20690;-66
2023/10/07 17:45:25;;;;;;;9.57;5.27;;;18.80;87.30;;;;;;20914934;28;20196;-70
2023/10/07 17:55:27;;;;;;;8.73;4.47;;;18.70;87.60;;;;;;20909982;28;20273;-65
2023/10/07 18:05:29;;;;;;;10.63;4.30;;;18.60;87.90;;;;;;20914222;28;20246;-69
2023/10/07 18:15:32;;;;;;;10.10;4.50;;;18.50;88.20;;;;;;20915117;28;20240;-69
2023/10/07 18:25:34;;;;;;;9.70;4.40;;;18.60;88.50;;;;;;20913728;28;20207;-71
2023/10/07 18:35:36;;;;;;;8.73;4.10;;;18.60;89.10;;;;;;20912820;28;20237;-75
2023/10/07 18:45:38;;;;;;;9.90;4.97;;;18.60;89.20;;;;;;20911768;28;20204;-72
2023/10/07 18:55:40;;;;;;;6.67;3.90;;;18.50;89.20;;;;;;20909721;28;20243;-69
2023/10/07 19:05:42;;;;;;;8.63;3.90;;;18.50;88.80;;;;;;20911647;28;20209;-66
2023/10/07 19:15:46;;;;;;;6.23;3.80;;;18.50;89.50;;;;;;20910902;28;20609;-72
2023/10/07 19:26:04;;;;;;;7.17;4.63;;;18.60;89.60;;;;;;20903251;28;20663;-70
2023/10/07 19:36:07;;;;;;;14.83;4.70;;;18.60;89.70;;;;;;20908987;28;20239;-69
2023/10/07 19:46:09;;;;;;;7.70;3.83;;;18.50;89.80;;;;;;20909451;28;20655;-69
2023/10/07 19:56:10;;;;;;;6.00;3.70;;;18.50;90.00;;;;;;20919926;28;20240;-69
2023/10/07 20:06:14;;;;;;;18.23;9.23;;;18.40;90.20;;;;;;20870619;28;20304;-70
2023/10/07 20:16:15;;;;;;;7.37;3.90;;;18.30;90.40;;;;;;20840386;28;20236;-69
2023/10/07 20:26:19;;;;;;;8.17;3.50;;;18.30;90.60;;;;;;20841180;28;20632;-69
2023/10/07 20:36:23;;;;;;;11.33;3.80;;;18.30;90.60;;;;;;20840295;28;20675;-69
2023/10/07 20:46:24;;;;;;;7.77;3.73;;;18.30;90.70;;;;;;20839313;28;20262;-69
2023/10/07 20:56:27;;;;;;;10.50;3.23;;;18.30;90.70;;;;;;20839162;28;20251;-68
2023/10/07 21:06:30;;;;;;;10.03;3.73;;;18.30;90.70;;;;;;20837682;28;20211;-69
2023/10/07 21:16:32;;;;;;;7.60;3.43;;;18.30;90.40;;;;;;20837606;28;20240;-68
2023/10/07 21:26:33;;;;;;;8.37;3.63;;;18.30;90.60;;;;;;20836729;28;20609;-69
2023/10/07 21:36:36;;;;;;;7.30;3.60;;;18.30;90.70;;;;;;20832732;28;20654;-70
2023/10/07 21:46:38;;;;;;;7.87;3.77;;;18.20;90.70;;;;;;20832938;28;20222;-69
2023/10/07 21:56:40;;;;;;;9.17;4.20;;;18.20;90.80;;;;;;20832073;28;20247;-70
2023/10/07 22:06:42;;;;;;;8.90;3.93;;;18.20;91.00;;;;;;20831240;28;20239;-69
2023/10/07 22:16:43;;;;;;;8.23;3.77;;;18.10;91.20;;;;;;20831020;28;20601;-69
2023/10/07 22:26:45;;;;;;;10.30;3.90;;;18.00;91.40;;;;;;20832187;28;20212;-68
2023/10/07 22:36:47;;;;;;;7.13;4.10;;;18.00;91.60;;;;;;20831623;28;20712;-69
2023/10/07 22:47:07;;;;;;;10.37;4.00;;;17.90;91.80;;;;;;20831860;28;20218;-69
2023/10/07 22:57:09;;;;;;;7.63;3.80;;;17.80;92.00;;;;;;20830263;28;20608;-70
2023/10/07 23:07:23;;;;;;;8.13;4.57;;;17.80;92.20;;;;;;20845636;28;20207;-70
2023/10/07 23:17:25;;;;;;;7.73;4.50;;;17.80;92.40;;;;;;20882960;28;20237;-70
2023/10/07 23:27:28;;;;;;;8.03;4.50;;;17.70;92.60;;;;;;20856865;28;20205;-70
2023/10/07 23:37:30;;;;;;;9.47;4.80;;;17.70;92.80;;;;;;20870224;28;20589;-70
2023/10/07 23:47:33;;;;;;;11.40;4.40;;;17.60;93.00;;;;;;20892145;28;20219;-69
2023/10/07 23:57:38;;;;;;;7.70;4.07;;;17.60;93.10;;;;;;20925755;28;20252;-69
